Lone, Kentucky
Current Conditions -  °F | °C
As of 9:53 PM on Sunday 23 Nov 2014 (Local Time) from KJKL Reporting Station
Broken Clouds Broken Clouds  
Wind Chill: 14°   Ceiling: 6500
Heat Index: 14°   Visibility: 10mi
Dew Point: 11°   Wind: 7mph
Humidity: 81%   Direction: NA
Pressure: 29.46"   Gusts: NA
Location:  37.53°N, 83.6°W
Report Text: KJKL 240253Z AUTO VRB06KT 10SM FEW049 BKN065 14/11 A2946 RMK AO2 SLP970 60001 T01440111 56034
Loading
Personal Weather Stations






























Interactive Weather Map New forecast layout! Learn more

10-Day Weather Forecast

Advertisements
Track Severe Weather on mobile